KLAX

Los Angeles International Airport

Los Angeles, California, USA
METAR KLAX 232153Z 26017KT 10SM FEW030 FEW065 14/M01 A3018 RMK AO2 SLP220 T01391011
Observed Flight Rules
Feb-23 @ 21:53 UTC (39 minutes ago) Visual Flight Rules
Wind Visibility Clouds
260° at 17 knots 10 miles
  • Few at 3,000' AGL
  • Few at 6,500' AGL
Temperatures Readings
Current 14°C / 57°F
Dewpoint -1°C / 30°F
Humidity 36%
Altimeter 30.18" Hg
Pressure 1022 hPa
Elevation 46
METAR KLAX 232153Z 26017KT 10SM FEW030 FEW065 14/M01 A3018 RMK AO2 SLP220 T01391011
Observed Flight Rules
Feb-23 @ 21:53 UTC
(39 minutes ago)
VFR
Wind Visibility
260° at 17 knots 10 miles
Clouds
  • Few at 3,000' AGL
  • Few at 6,500' AGL
Temperature Dewpoint
14°C / 57°F -1°C / 30°F
Humidity Altimeter Pressure
36% 30.18" Hg 1022 hPa